Terminal Aerodrome Forecast
Issued by NWS Binghamton, NY

Home | Current Version | Previous Version | Text Only | Print | Product List | Glossary On
Versions: 1 2 3 4 5 6 7 8 9 10 11 12 13 14 15 16 17 18 19 20 21
000
FTUS41 KBGM 310800 AAA
TAFBGM
TAF AMD
KBGM 310839Z 3109/0106 18009KT P6SM OVC015
     FM311300 20007KT 5SM -SHRA SCT009 OVC012
     FM311400 24009KT 5SM -SHRA BKN025 OVC035
      TEMPO 3114/3118 3SM -TSRA OVC015CB=

USA.gov is the U.S. government's official web portal to all federal, state and local government web resources and services.